Baie Comeau — CFN6357 — position and weather

sailwx.info

Track history (hours):
 
Tides and Currents Weather Stations Pressure Air Temp Water Temp Dewpoint Dewpoint Depression Visibility Wind Speed Wind Dir Waves Ship Positions

Baie Comeau

Last reported at 2017-Nov-18 20:08 UTC. Time now 2017-Nov-23 03:19 UTC.
Position N 45°43' W 083°40'.

Length 225 m; draft 8.8 m.

Type: Cargo ship. MMSI: 316023808.

Date/timePositionNaut miles runAvg speedWind from/ knotsBaromVisibWave heightAir tempDewpointWater temp
2017-Nov-18 20:08N 45°43' W 083°40'212.8
2017-Nov-18 20:00N 45°41' W 083°38'712.8
2017-Nov-18 19:26N 45°36' W 083°32'  
2017-Nov-15 08:09N 45°25' W 083°17'212.2
2017-Nov-15 07:58N 45°27' W 083°19'612.2
2017-Nov-15 07:28N 45°31' W 083°24'612.3
2017-Nov-15 06:59N 45°36' W 083°30'612.2
2017-Nov-15 06:30N 45°41' W 083°35'  
2017-Nov-12 06:25N 45°43' W 083°39'713.8
2017-Nov-12 05:54N 45°37' W 083°34'613.7
2017-Nov-12 05:30N 45°32' W 083°29'  
Track history (hours):
 
Tides and Currents Weather Stations Pressure Air Temp Water Temp Dewpoint Dewpoint Depression Visibility Wind Speed Wind Dir Waves Ship Positions

Baie Comeau

Last reported at 2017-Nov-18 20:08 UTC. Time now 2017-Nov-23 03:19 UTC.
Position N 45°43' W 083°40'.

Length 225 m; draft 8.8 m.

Type: Cargo ship. MMSI: 316023808.

Date/timePositionNaut miles runAvg speedWind from/ knotsBaromVisibWave heightAir tempDewpointWater temp
2017-Nov-18 20:08N 45°43' W 083°40'212.8
2017-Nov-18 20:00N 45°41' W 083°38'712.8
2017-Nov-18 19:26N 45°36' W 083°32'  
2017-Nov-15 08:09N 45°25' W 083°17'212.2
2017-Nov-15 07:58N 45°27' W 083°19'612.2
2017-Nov-15 07:28N 45°31' W 083°24'612.3
2017-Nov-15 06:59N 45°36' W 083°30'612.2
2017-Nov-15 06:30N 45°41' W 083°35'  
2017-Nov-12 06:25N 45°43' W 083°39'713.8
2017-Nov-12 05:54N 45°37' W 083°34'613.7
2017-Nov-12 05:30N 45°32' W 083°29'  

Dump ship's entire track history